sensor_id;sensor_type;location;lat;lon;timestamp;temperature;humidity
13798;DHT22;6970;51.340;3.240;2022-12-26T00:00:30;9.90;99.90
13798;DHT22;6970;51.340;3.240;2022-12-26T00:02:57;10.00;99.90
13798;DHT22;6970;51.340;3.240;2022-12-26T00:05:24;10.00;99.90
13798;DHT22;6970;51.340;3.240;2022-12-26T00:07:51;10.00;99.90
13798;DHT22;6970;51.340;3.240;2022-12-26T00:10:18;10.00;99.90
13798;DHT22;6970;51.340;3.240;2022-12-26T00:12:45;10.00;99.90
13798;DHT22;6970;51.340;3.240;2022-12-26T00:15:12;10.00;99.90
13798;DHT22;6970;51.340;3.240;2022-12-26T00:17:39;9.90;99.90
13798;DHT22;6970;51.340;3.240;2022-12-26T00:20:06;10.00;99.90
13798;DHT22;6970;51.340;3.240;2022-12-26T00:22:33;9.90;99.90
13798;DHT22;6970;51.340;3.240;2022-12-26T00:25:00;9.90;99.90
13798;DHT22;6970;51.340;3.240;2022-12-26T00:27:27;9.90;99.90
13798;DHT22;6970;51.340;3.240;2022-12-26T00:29:54;10.00;99.90
13798;DHT22;6970;51.340;3.240;2022-12-26T00:32:21;9.90;99.90
13798;DHT22;6970;51.340;3.240;2022-12-26T00:34:48;9.90;99.90
13798;DHT22;6970;51.340;3.240;2022-12-26T00:37:14;9.90;99.90
13798;DHT22;6970;51.340;3.240;2022-12-26T00:39:41;9.90;99.90
13798;DHT22;6970;51.340;3.240;2022-12-26T00:42:08;9.80;99.90
13798;DHT22;6970;51.340;3.240;2022-12-26T00:44:35;9.80;99.90
13798;DHT22;6970;51.340;3.240;2022-12-26T00:47:02;9.80;99.90
13798;DHT22;6970;51.340;3.240;2022-12-26T00:49:29;9.80;99.90
13798;DHT22;6970;51.340;3.240;2022-12-26T00:52:16;9.80;99.90
13798;DHT22;6970;51.340;3.240;2022-12-26T00:54:43;9.70;99.90
13798;DHT22;6970;51.340;3.240;2022-12-26T00:57:10;9.70;99.90
13798;DHT22;6970;51.340;3.240;2022-12-26T00:59:37;9.70;99.90
13798;DHT22;6970;51.340;3.240;2022-12-26T01:02:04;9.70;99.90
13798;DHT22;6970;51.340;3.240;2022-12-26T01:04:52;9.70;99.90
13798;DHT22;6970;51.340;3.240;2022-12-26T01:07:20;9.60;99.90
13798;DHT22;6970;51.340;3.240;2022-12-26T01:09:47;9.60;99.90
13798;DHT22;6970;51.340;3.240;2022-12-26T01:12:14;9.60;99.90
13798;DHT22;6970;51.340;3.240;2022-12-26T01:14:41;9.60;99.90
13798;DHT22;6970;51.340;3.240;2022-12-26T01:17:08;9.60;99.90
13798;DHT22;6970;51.340;3.240;2022-12-26T01:19:36;9.50;99.90
13798;DHT22;6970;51.340;3.240;2022-12-26T01:22:04;9.50;99.90
13798;DHT22;6970;51.340;3.240;2022-12-26T01:24:31;9.50;99.90
13798;DHT22;6970;51.340;3.240;2022-12-26T01:26:57;9.50;99.90
13798;DHT22;6970;51.340;3.240;2022-12-26T01:29:24;9.50;99.90
13798;DHT22;6970;51.340;3.240;2022-12-26T01:31:52;9.50;99.90
13798;DHT22;6970;51.340;3.240;2022-12-26T01:34:19;9.50;99.90
13798;DHT22;6970;51.340;3.240;2022-12-26T01:36:46;9.40;99.90
13798;DHT22;6970;51.340;3.240;2022-12-26T01:39:12;9.50;99.90
13798;DHT22;6970;51.340;3.240;2022-12-26T01:41:40;9.40;99.90
13798;DHT22;6970;51.340;3.240;2022-12-26T01:47:13;9.40;99.90
13798;DHT22;6970;51.340;3.240;2022-12-26T01:49:42;9.40;99.90
13798;DHT22;6970;51.340;3.240;2022-12-26T01:52:16;9.40;99.90
13798;DHT22;6970;51.340;3.240;2022-12-26T01:54:46;9.40;99.90
13798;DHT22;6970;51.340;3.240;2022-12-26T01:57:27;9.40;99.90
13798;DHT22;6970;51.340;3.240;2022-12-26T01:59:56;9.40;99.90
13798;DHT22;6970;51.340;3.240;2022-12-26T02:02:26;9.40;99.90
13798;DHT22;6970;51.340;3.240;2022-12-26T02:04:55;9.40;99.90
13798;DHT22;6970;51.340;3.240;2022-12-26T02:07:44;9.40;99.90
13798;DHT22;6970;51.340;3.240;2022-12-26T02:10:19;9.40;99.90
13798;DHT22;6970;51.340;3.240;2022-12-26T02:12:48;9.40;99.90
13798;DHT22;6970;51.340;3.240;2022-12-26T02:15:16;9.30;99.90
13798;DHT22;6970;51.340;3.240;2022-12-26T02:17:43;9.40;99.90
13798;DHT22;6970;51.340;3.240;2022-12-26T02:20:22;9.30;99.90
13798;DHT22;6970;51.340;3.240;2022-12-26T02:25:51;9.30;99.90
13798;DHT22;6970;51.340;3.240;2022-12-26T02:30:51;9.30;99.90
13798;DHT22;6970;51.340;3.240;2022-12-26T02:45:00;9.40;99.90
13798;DHT22;6970;51.340;3.240;2022-12-26T02:48:04;9.40;99.90
13798;DHT22;6970;51.340;3.240;2022-12-26T02:54:13;9.40;99.90
13798;DHT22;6970;51.340;3.240;2022-12-26T02:57:05;9.50;99.90
13798;DHT22;6970;51.340;3.240;2022-12-26T02:59:59;9.50;99.90
13798;DHT22;6970;51.340;3.240;2022-12-26T03:02:55;9.50;99.90
13798;DHT22;6970;51.340;3.240;2022-12-26T03:09:01;9.50;99.90
13798;DHT22;6970;51.340;3.240;2022-12-26T03:11:51;9.60;99.90
13798;DHT22;6970;51.340;3.240;2022-12-26T03:14:51;9.50;99.90
13798;DHT22;6970;51.340;3.240;2022-12-26T03:19:57;9.50;99.90
13798;DHT22;6970;51.340;3.240;2022-12-26T03:25:12;9.50;99.90
13798;DHT22;6970;51.340;3.240;2022-12-26T03:27:58;9.50;99.90
13798;DHT22;6970;51.340;3.240;2022-12-26T03:30:25;9.50;99.90
13798;DHT22;6970;51.340;3.240;2022-12-26T03:33:11;9.50;99.90
13798;DHT22;6970;51.340;3.240;2022-12-26T03:35:57;9.50;99.90
13798;DHT22;6970;51.340;3.240;2022-12-26T03:38:34;9.50;99.90
13798;DHT22;6970;51.340;3.240;2022-12-26T03:41:33;9.50;99.90
13798;DHT22;6970;51.340;3.240;2022-12-26T03:50:05;9.50;99.90
13798;DHT22;6970;51.340;3.240;2022-12-26T03:53:13;9.50;99.90
13798;DHT22;6970;51.340;3.240;2022-12-26T03:59:36;9.50;99.90
13798;DHT22;6970;51.340;3.240;2022-12-26T04:02:25;9.50;99.90
13798;DHT22;6970;51.340;3.240;2022-12-26T04:05:14;9.50;99.90
13798;DHT22;6970;51.340;3.240;2022-12-26T04:08:04;9.50;99.90
13798;DHT22;6970;51.340;3.240;2022-12-26T04:10:55;9.50;99.90
13798;DHT22;6970;51.340;3.240;2022-12-26T04:20:12;9.50;99.90
13798;DHT22;6970;51.340;3.240;2022-12-26T04:25:48;9.50;99.90
13798;DHT22;6970;51.340;3.240;2022-12-26T04:28:35;9.60;99.90
13798;DHT22;6970;51.340;3.240;2022-12-26T04:31:28;9.60;99.90
13798;DHT22;6970;51.340;3.240;2022-12-26T04:34:21;9.70;99.90
13798;DHT22;6970;51.340;3.240;2022-12-26T04:37:18;9.70;99.90
13798;DHT22;6970;51.340;3.240;2022-12-26T04:40:17;9.60;99.90
13798;DHT22;6970;51.340;3.240;2022-12-26T04:43:06;9.70;99.90
13798;DHT22;6970;51.340;3.240;2022-12-26T04:46:14;9.70;99.90
13798;DHT22;6970;51.340;3.240;2022-12-26T04:48:46;9.70;99.90
13798;DHT22;6970;51.340;3.240;2022-12-26T04:51:32;9.60;99.90
13798;DHT22;6970;51.340;3.240;2022-12-26T04:53:59;9.60;99.90
13798;DHT22;6970;51.340;3.240;2022-12-26T04:56:26;9.60;99.90
13798;DHT22;6970;51.340;3.240;2022-12-26T04:58:53;9.60;99.90
13798;DHT22;6970;51.340;3.240;2022-12-26T05:01:20;9.60;99.90
13798;DHT22;6970;51.340;3.240;2022-12-26T05:04:12;9.70;99.90
13798;DHT22;6970;51.340;3.240;2022-12-26T05:06:58;9.70;99.90
13798;DHT22;6970;51.340;3.240;2022-12-26T05:09:46;9.70;99.90
13798;DHT22;6970;51.340;3.240;2022-12-26T05:12:14;9.70;99.90
13798;DHT22;6970;51.340;3.240;2022-12-26T05:14:41;9.70;99.90
13798;DHT22;6970;51.340;3.240;2022-12-26T05:17:09;9.70;99.90
13798;DHT22;6970;51.340;3.240;2022-12-26T05:19:56;9.70;99.90
13798;DHT22;6970;51.340;3.240;2022-12-26T05:22:43;9.70;99.90
13798;DHT22;6970;51.340;3.240;2022-12-26T05:25:32;9.70;99.90
13798;DHT22;6970;51.340;3.240;2022-12-26T05:28:19;9.70;99.90
13798;DHT22;6970;51.340;3.240;2022-12-26T05:31:05;9.70;99.90
13798;DHT22;6970;51.340;3.240;2022-12-26T05:33:32;9.70;99.90
13798;DHT22;6970;51.340;3.240;2022-12-26T05:36:19;9.60;99.90
13798;DHT22;6970;51.340;3.240;2022-12-26T05:38:48;9.60;99.90
13798;DHT22;6970;51.340;3.240;2022-12-26T05:41:15;9.60;99.90
13798;DHT22;6970;51.340;3.240;2022-12-26T05:43:42;9.70;99.90
13798;DHT22;6970;51.340;3.240;2022-12-26T05:46:09;9.60;99.90
13798;DHT22;6970;51.340;3.240;2022-12-26T05:48:36;9.60;99.90
13798;DHT22;6970;51.340;3.240;2022-12-26T05:51:03;9.60;99.90
13798;DHT22;6970;51.340;3.240;2022-12-26T05:53:31;9.70;99.90
13798;DHT22;6970;51.340;3.240;2022-12-26T05:56:03;9.60;99.90
13798;DHT22;6970;51.340;3.240;2022-12-26T05:58:30;9.70;99.90
13798;DHT22;6970;51.340;3.240;2022-12-26T06:01:06;9.70;99.90
13798;DHT22;6970;51.340;3.240;2022-12-26T06:03:34;9.70;99.90
13798;DHT22;6970;51.340;3.240;2022-12-26T06:06:01;9.70;99.90
13798;DHT22;6970;51.340;3.240;2022-12-26T06:08:28;9.70;99.90
13798;DHT22;6970;51.340;3.240;2022-12-26T06:10:55;9.70;99.90
13798;DHT22;6970;51.340;3.240;2022-12-26T06:13:23;9.70;99.90
13798;DHT22;6970;51.340;3.240;2022-12-26T06:15:50;9.70;99.90
13798;DHT22;6970;51.340;3.240;2022-12-26T06:18:17;9.70;99.90
13798;DHT22;6970;51.340;3.240;2022-12-26T06:20:44;9.60;99.90
13798;DHT22;6970;51.340;3.240;2022-12-26T06:23:11;9.60;99.90
13798;DHT22;6970;51.340;3.240;2022-12-26T06:25:37;9.70;99.90
13798;DHT22;6970;51.340;3.240;2022-12-26T06:28:04;9.70;99.90
13798;DHT22;6970;51.340;3.240;2022-12-26T06:30:31;9.70;99.90
13798;DHT22;6970;51.340;3.240;2022-12-26T06:32:58;9.70;99.90
13798;DHT22;6970;51.340;3.240;2022-12-26T06:35:29;9.70;99.90
13798;DHT22;6970;51.340;3.240;2022-12-26T06:37:56;9.70;99.90
13798;DHT22;6970;51.340;3.240;2022-12-26T06:40:24;9.70;99.90
13798;DHT22;6970;51.340;3.240;2022-12-26T06:42:54;9.70;99.90
13798;DHT22;6970;51.340;3.240;2022-12-26T06:45:23;9.70;99.90
13798;DHT22;6970;51.340;3.240;2022-12-26T06:47:52;9.70;99.90
13798;DHT22;6970;51.340;3.240;2022-12-26T06:50:22;9.70;99.90
13798;DHT22;6970;51.340;3.240;2022-12-26T06:52:52;9.70;99.90
13798;DHT22;6970;51.340;3.240;2022-12-26T06:55:27;9.70;99.90
13798;DHT22;6970;51.340;3.240;2022-12-26T06:57:56;9.70;99.90
13798;DHT22;6970;51.340;3.240;2022-12-26T07:00:26;9.70;99.90
13798;DHT22;6970;51.340;3.240;2022-12-26T07:02:59;9.70;99.90
13798;DHT22;6970;51.340;3.240;2022-12-26T07:05:29;9.80;99.90
13798;DHT22;6970;51.340;3.240;2022-12-26T07:07:59;9.80;99.90
13798;DHT22;6970;51.340;3.240;2022-12-26T07:10:32;9.80;99.90
13798;DHT22;6970;51.340;3.240;2022-12-26T07:13:00;9.80;99.90
13798;DHT22;6970;51.340;3.240;2022-12-26T07:15:27;9.80;99.90
13798;DHT22;6970;51.340;3.240;2022-12-26T07:17:55;9.80;99.90
13798;DHT22;6970;51.340;3.240;2022-12-26T07:20:25;9.80;99.90
13798;DHT22;6970;51.340;3.240;2022-12-26T07:22:53;9.80;99.90
13798;DHT22;6970;51.340;3.240;2022-12-26T07:25:22;9.80;99.90
13798;DHT22;6970;51.340;3.240;2022-12-26T07:27:52;9.80;99.90
13798;DHT22;6970;51.340;3.240;2022-12-26T07:30:22;9.90;99.90
13798;DHT22;6970;51.340;3.240;2022-12-26T07:32:50;9.90;99.90
13798;DHT22;6970;51.340;3.240;2022-12-26T07:35:20;9.90;99.90
13798;DHT22;6970;51.340;3.240;2022-12-26T07:37:49;9.90;99.90
13798;DHT22;6970;51.340;3.240;2022-12-26T07:40:20;9.90;99.90
13798;DHT22;6970;51.340;3.240;2022-12-26T07:42:52;9.90;99.90
13798;DHT22;6970;51.340;3.240;2022-12-26T07:45:20;9.90;99.90
13798;DHT22;6970;51.340;3.240;2022-12-26T07:47:47;9.90;99.90
13798;DHT22;6970;51.340;3.240;2022-12-26T07:50:17;9.90;99.90
13798;DHT22;6970;51.340;3.240;2022-12-26T07:52:47;9.90;99.90
13798;DHT22;6970;51.340;3.240;2022-12-26T07:55:16;9.90;99.90
13798;DHT22;6970;51.340;3.240;2022-12-26T07:57:50;9.90;99.90
13798;DHT22;6970;51.340;3.240;2022-12-26T08:00:20;9.90;99.90
13798;DHT22;6970;51.340;3.240;2022-12-26T08:02:49;9.90;99.90
13798;DHT22;6970;51.340;3.240;2022-12-26T08:05:20;9.90;99.90
13798;DHT22;6970;51.340;3.240;2022-12-26T08:07:47;9.90;99.90
13798;DHT22;6970;51.340;3.240;2022-12-26T08:10:17;9.90;99.90
13798;DHT22;6970;51.340;3.240;2022-12-26T08:12:47;9.90;99.90
13798;DHT22;6970;51.340;3.240;2022-12-26T08:15:15;9.80;99.90
13798;DHT22;6970;51.340;3.240;2022-12-26T08:17:45;9.70;99.90
13798;DHT22;6970;51.340;3.240;2022-12-26T08:20:13;9.60;99.90
13798;DHT22;6970;51.340;3.240;2022-12-26T08:22:40;9.50;99.90
13798;DHT22;6970;51.340;3.240;2022-12-26T08:25:08;9.40;99.90
13798;DHT22;6970;51.340;3.240;2022-12-26T08:27:35;9.40;99.90
13798;DHT22;6970;51.340;3.240;2022-12-26T08:30:03;9.40;99.90
13798;DHT22;6970;51.340;3.240;2022-12-26T08:32:30;9.40;99.90
13798;DHT22;6970;51.340;3.240;2022-12-26T08:35:00;9.30;99.90
13798;DHT22;6970;51.340;3.240;2022-12-26T08:37:32;9.30;99.90
13798;DHT22;6970;51.340;3.240;2022-12-26T08:40:01;9.30;99.90
13798;DHT22;6970;51.340;3.240;2022-12-26T08:42:30;9.20;99.90
13798;DHT22;6970;51.340;3.240;2022-12-26T08:44:59;9.10;99.90
13798;DHT22;6970;51.340;3.240;2022-12-26T08:47:28;9.10;99.90
13798;DHT22;6970;51.340;3.240;2022-12-26T08:49:55;8.90;99.90
13798;DHT22;6970;51.340;3.240;2022-12-26T08:52:23;8.90;99.90
13798;DHT22;6970;51.340;3.240;2022-12-26T08:54:53;8.90;99.90
13798;DHT22;6970;51.340;3.240;2022-12-26T08:57:22;8.90;99.90
13798;DHT22;6970;51.340;3.240;2022-12-26T08:59:50;8.90;99.90
13798;DHT22;6970;51.340;3.240;2022-12-26T09:02:17;8.90;99.90
13798;DHT22;6970;51.340;3.240;2022-12-26T09:04:45;9.20;99.90
13798;DHT22;6970;51.340;3.240;2022-12-26T09:07:16;9.30;99.90
13798;DHT22;6970;51.340;3.240;2022-12-26T09:09:47;9.30;99.90
13798;DHT22;6970;51.340;3.240;2022-12-26T09:12:17;9.30;99.90
13798;DHT22;6970;51.340;3.240;2022-12-26T09:14:47;9.20;99.90
13798;DHT22;6970;51.340;3.240;2022-12-26T09:17:16;9.40;99.90
13798;DHT22;6970;51.340;3.240;2022-12-26T09:19:43;9.60;99.90
13798;DHT22;6970;51.340;3.240;2022-12-26T09:22:10;9.60;99.90
13798;DHT22;6970;51.340;3.240;2022-12-26T09:25:00;9.50;99.90
13798;DHT22;6970;51.340;3.240;2022-12-26T09:27:28;9.40;99.90
13798;DHT22;6970;51.340;3.240;2022-12-26T09:29:56;9.30;99.90
13798;DHT22;6970;51.340;3.240;2022-12-26T09:32:26;9.10;99.90
13798;DHT22;6970;51.340;3.240;2022-12-26T09:34:53;9.10;99.90
13798;DHT22;6970;51.340;3.240;2022-12-26T09:37:20;9.00;99.90
13798;DHT22;6970;51.340;3.240;2022-12-26T09:39:48;8.90;99.90
13798;DHT22;6970;51.340;3.240;2022-12-26T09:45:26;8.90;99.90
13798;DHT22;6970;51.340;3.240;2022-12-26T09:48:03;8.80;99.90
13798;DHT22;6970;51.340;3.240;2022-12-26T09:50:36;8.80;99.90
13798;DHT22;6970;51.340;3.240;2022-12-26T09:53:15;8.80;99.90
13798;DHT22;6970;51.340;3.240;2022-12-26T09:59:11;8.80;99.90
13798;DHT22;6970;51.340;3.240;2022-12-26T10:01:26;8.80;99.90
13798;DHT22;6970;51.340;3.240;2022-12-26T10:03:56;8.80;99.90
13798;DHT22;6970;51.340;3.240;2022-12-26T10:06:36;8.80;99.90
13798;DHT22;6970;51.340;3.240;2022-12-26T10:18:38;8.70;99.90
13798;DHT22;6970;51.340;3.240;2022-12-26T10:24:19;8.80;99.90
13798;DHT22;6970;51.340;3.240;2022-12-26T10:26:52;8.70;99.90
13798;DHT22;6970;51.340;3.240;2022-12-26T10:29:33;8.70;99.90
13798;DHT22;6970;51.340;3.240;2022-12-26T10:34:48;8.80;99.90
13798;DHT22;6970;51.340;3.240;2022-12-26T10:37:39;8.80;99.90
13798;DHT22;6970;51.340;3.240;2022-12-26T10:42:40;8.80;99.90
13798;DHT22;6970;51.340;3.240;2022-12-26T10:48:04;8.90;99.90
13798;DHT22;6970;51.340;3.240;2022-12-26T10:50:33;8.90;99.90
13798;DHT22;6970;51.340;3.240;2022-12-26T10:53:05;8.90;99.90
13798;DHT22;6970;51.340;3.240;2022-12-26T10:55:35;9.00;99.90
13798;DHT22;6970;51.340;3.240;2022-12-26T10:58:30;9.00;99.90
13798;DHT22;6970;51.340;3.240;2022-12-26T11:03:56;9.10;99.90
13798;DHT22;6970;51.340;3.240;2022-12-26T11:06:35;9.10;99.90
13798;DHT22;6970;51.340;3.240;2022-12-26T11:09:03;9.00;99.90
13798;DHT22;6970;51.340;3.240;2022-12-26T11:11:35;9.10;99.90
13798;DHT22;6970;51.340;3.240;2022-12-26T11:14:38;9.10;99.90
13798;DHT22;6970;51.340;3.240;2022-12-26T11:22:43;9.10;99.90
13798;DHT22;6970;51.340;3.240;2022-12-26T11:25:26;9.00;99.90
13798;DHT22;6970;51.340;3.240;2022-12-26T11:28:19;9.00;99.90
13798;DHT22;6970;51.340;3.240;2022-12-26T11:30:50;9.10;99.90
13798;DHT22;6970;51.340;3.240;2022-12-26T11:36:07;9.30;99.90
13798;DHT22;6970;51.340;3.240;2022-12-26T11:38:48;9.40;99.90
13798;DHT22;6970;51.340;3.240;2022-12-26T11:41:18;9.60;99.90
13798;DHT22;6970;51.340;3.240;2022-12-26T11:46:39;10.20;99.90
13798;DHT22;6970;51.340;3.240;2022-12-26T11:51:48;10.50;99.90
13798;DHT22;6970;51.340;3.240;2022-12-26T11:54:27;10.50;99.90
13798;DHT22;6970;51.340;3.240;2022-12-26T11:57:22;10.70;99.90
13798;DHT22;6970;51.340;3.240;2022-12-26T11:59:54;10.90;99.90
13798;DHT22;6970;51.340;3.240;2022-12-26T12:02:43;10.90;99.90
13798;DHT22;6970;51.340;3.240;2022-12-26T12:08:14;11.20;99.90
13798;DHT22;6970;51.340;3.240;2022-12-26T12:11:12;11.20;99.90
13798;DHT22;6970;51.340;3.240;2022-12-26T12:25:27;11.80;99.90
13798;DHT22;6970;51.340;3.240;2022-12-26T12:33:32;12.00;99.90
13798;DHT22;6970;51.340;3.240;2022-12-26T12:36:36;12.20;99.90
13798;DHT22;6970;51.340;3.240;2022-12-26T12:39:15;12.30;99.90
13798;DHT22;6970;51.340;3.240;2022-12-26T12:42:16;12.40;99.90
13798;DHT22;6970;51.340;3.240;2022-12-26T12:47:40;12.50;99.90
13798;DHT22;6970;51.340;3.240;2022-12-26T12:50:23;12.50;99.90
13798;DHT22;6970;51.340;3.240;2022-12-26T12:58:58;12.70;99.30
13798;DHT22;6970;51.340;3.240;2022-12-26T13:01:54;12.70;99.50
13798;DHT22;6970;51.340;3.240;2022-12-26T13:04:28;12.70;98.60
13798;DHT22;6970;51.340;3.240;2022-12-26T13:07:26;12.60;99.30
13798;DHT22;6970;51.340;3.240;2022-12-26T13:10:01;12.70;99.10
13798;DHT22;6970;51.340;3.240;2022-12-26T13:12:37;12.70;99.30
13798;DHT22;6970;51.340;3.240;2022-12-26T13:17:55;12.60;99.20
13798;DHT22;6970;51.340;3.240;2022-12-26T13:20:47;12.50;99.30
13798;DHT22;6970;51.340;3.240;2022-12-26T13:23:28;12.50;99.30
13798;DHT22;6970;51.340;3.240;2022-12-26T13:26:29;12.40;99.30
13798;DHT22;6970;51.340;3.240;2022-12-26T13:29:18;12.30;99.70
13798;DHT22;6970;51.340;3.240;2022-12-26T13:31:49;12.20;99.80
13798;DHT22;6970;51.340;3.240;2022-12-26T13:34:18;12.20;99.90
13798;DHT22;6970;51.340;3.240;2022-12-26T13:36:54;12.20;99.90
13798;DHT22;6970;51.340;3.240;2022-12-26T13:44:52;12.30;99.90
13798;DHT22;6970;51.340;3.240;2022-12-26T13:47:35;12.20;99.80
13798;DHT22;6970;51.340;3.240;2022-12-26T13:58:59;12.20;99.80
13798;DHT22;6970;51.340;3.240;2022-12-26T14:05:05;12.10;99.90
13798;DHT22;6970;51.340;3.240;2022-12-26T14:18:45;11.90;99.90
13798;DHT22;6970;51.340;3.240;2022-12-26T14:21:24;11.90;99.90
13798;DHT22;6970;51.340;3.240;2022-12-26T14:43:36;11.50;98.90
13798;DHT22;6970;51.340;3.240;2022-12-26T14:52:37;11.20;99.20
13798;DHT22;6970;51.340;3.240;2022-12-26T14:58:43;10.90;98.80
13798;DHT22;6970;51.340;3.240;2022-12-26T15:03:58;10.70;98.80
13798;DHT22;6970;51.340;3.240;2022-12-26T15:38:11;9.30;99.90
13798;DHT22;6970;51.340;3.240;2022-12-26T15:56:32;8.60;99.90
13798;DHT22;6970;51.340;3.240;2022-12-26T16:01:51;8.40;99.80
13798;DHT22;6970;51.340;3.240;2022-12-26T16:04:35;8.40;99.80
13798;DHT22;6970;51.340;3.240;2022-12-26T16:09:54;8.30;99.50
13798;DHT22;6970;51.340;3.240;2022-12-26T16:12:30;8.20;99.60
13798;DHT22;6970;51.340;3.240;2022-12-26T16:17:38;8.20;99.60
13798;DHT22;6970;51.340;3.240;2022-12-26T16:23:23;8.10;99.80
13798;DHT22;6970;51.340;3.240;2022-12-26T16:25:55;8.10;99.80
13798;DHT22;6970;51.340;3.240;2022-12-26T16:28:38;8.00;99.20
13798;DHT22;6970;51.340;3.240;2022-12-26T16:31:08;8.00;98.90
13798;DHT22;6970;51.340;3.240;2022-12-26T16:33:41;8.00;99.00
13798;DHT22;6970;51.340;3.240;2022-12-26T16:36:11;8.00;99.10
13798;DHT22;6970;51.340;3.240;2022-12-26T16:38:44;7.90;99.20
13798;DHT22;6970;51.340;3.240;2022-12-26T16:41:24;7.90;99.50
13798;DHT22;6970;51.340;3.240;2022-12-26T16:43:52;7.90;99.90
13798;DHT22;6970;51.340;3.240;2022-12-26T16:46:28;7.90;99.90
13798;DHT22;6970;51.340;3.240;2022-12-26T16:48:58;7.90;99.90
13798;DHT22;6970;51.340;3.240;2022-12-26T16:51:32;7.80;99.90
13798;DHT22;6970;51.340;3.240;2022-12-26T16:54:35;7.80;99.90
13798;DHT22;6970;51.340;3.240;2022-12-26T16:57:18;7.80;99.90
13798;DHT22;6970;51.340;3.240;2022-12-26T16:59:54;7.80;99.90
13798;DHT22;6970;51.340;3.240;2022-12-26T17:02:33;7.80;99.90
13798;DHT22;6970;51.340;3.240;2022-12-26T17:05:14;7.80;99.90
13798;DHT22;6970;51.340;3.240;2022-12-26T17:07:45;7.90;99.90
13798;DHT22;6970;51.340;3.240;2022-12-26T17:10:31;7.90;99.90
13798;DHT22;6970;51.340;3.240;2022-12-26T17:13:03;7.90;99.90
13798;DHT22;6970;51.340;3.240;2022-12-26T17:15:35;7.80;99.90
13798;DHT22;6970;51.340;3.240;2022-12-26T17:21:25;7.60;99.90
13798;DHT22;6970;51.340;3.240;2022-12-26T17:24:14;7.50;99.90
13798;DHT22;6970;51.340;3.240;2022-12-26T17:27:09;7.30;99.90
13798;DHT22;6970;51.340;3.240;2022-12-26T17:30:00;7.20;99.90
13798;DHT22;6970;51.340;3.240;2022-12-26T17:32:47;7.10;99.90
13798;DHT22;6970;51.340;3.240;2022-12-26T17:35:24;7.00;99.90
13798;DHT22;6970;51.340;3.240;2022-12-26T17:38:02;6.90;99.90
13798;DHT22;6970;51.340;3.240;2022-12-26T17:40:37;6.90;99.90
13798;DHT22;6970;51.340;3.240;2022-12-26T17:43:19;6.90;99.90
13798;DHT22;6970;51.340;3.240;2022-12-26T17:45:46;6.80;99.90
13798;DHT22;6970;51.340;3.240;2022-12-26T17:48:15;6.80;99.90
13798;DHT22;6970;51.340;3.240;2022-12-26T17:50:48;6.70;99.90
13798;DHT22;6970;51.340;3.240;2022-12-26T17:53:25;6.60;99.90
13798;DHT22;6970;51.340;3.240;2022-12-26T17:55:57;6.60;99.90
13798;DHT22;6970;51.340;3.240;2022-12-26T17:58:28;6.50;99.90
13798;DHT22;6970;51.340;3.240;2022-12-26T18:00:58;6.40;99.90
13798;DHT22;6970;51.340;3.240;2022-12-26T18:03:27;6.40;99.90
13798;DHT22;6970;51.340;3.240;2022-12-26T18:05:54;6.40;99.90
13798;DHT22;6970;51.340;3.240;2022-12-26T18:08:34;6.40;99.90
13798;DHT22;6970;51.340;3.240;2022-12-26T18:11:06;6.30;99.90
13798;DHT22;6970;51.340;3.240;2022-12-26T18:13:34;6.30;99.90
13798;DHT22;6970;51.340;3.240;2022-12-26T18:16:03;6.30;99.90
13798;DHT22;6970;51.340;3.240;2022-12-26T18:18:37;6.30;99.90
13798;DHT22;6970;51.340;3.240;2022-12-26T18:21:07;6.30;99.90
13798;DHT22;6970;51.340;3.240;2022-12-26T18:23:38;6.30;99.90
13798;DHT22;6970;51.340;3.240;2022-12-26T18:26:07;6.30;99.90
13798;DHT22;6970;51.340;3.240;2022-12-26T18:28:37;6.30;99.90
13798;DHT22;6970;51.340;3.240;2022-12-26T18:31:12;6.30;99.90
13798;DHT22;6970;51.340;3.240;2022-12-26T18:33:43;6.30;99.90
13798;DHT22;6970;51.340;3.240;2022-12-26T18:36:13;6.30;99.90
13798;DHT22;6970;51.340;3.240;2022-12-26T18:38:42;6.30;99.90
13798;DHT22;6970;51.340;3.240;2022-12-26T18:41:15;6.30;99.90
13798;DHT22;6970;51.340;3.240;2022-12-26T18:43:42;6.30;99.90
13798;DHT22;6970;51.340;3.240;2022-12-26T18:46:21;6.40;99.90
13798;DHT22;6970;51.340;3.240;2022-12-26T18:48:51;6.30;99.90
13798;DHT22;6970;51.340;3.240;2022-12-26T18:51:23;6.40;99.90
13798;DHT22;6970;51.340;3.240;2022-12-26T18:53:53;6.40;99.90
13798;DHT22;6970;51.340;3.240;2022-12-26T18:56:21;6.30;99.90
13798;DHT22;6970;51.340;3.240;2022-12-26T18:58:51;6.30;99.90
13798;DHT22;6970;51.340;3.240;2022-12-26T19:01:25;6.30;99.90
13798;DHT22;6970;51.340;3.240;2022-12-26T19:03:55;6.30;99.90
13798;DHT22;6970;51.340;3.240;2022-12-26T19:06:28;6.30;99.90
13798;DHT22;6970;51.340;3.240;2022-12-26T19:08:55;6.40;99.90
13798;DHT22;6970;51.340;3.240;2022-12-26T19:11:22;6.40;99.90
13798;DHT22;6970;51.340;3.240;2022-12-26T19:13:49;6.40;99.90
13798;DHT22;6970;51.340;3.240;2022-12-26T19:16:17;6.40;99.90
13798;DHT22;6970;51.340;3.240;2022-12-26T19:18:48;6.40;99.90
13798;DHT22;6970;51.340;3.240;2022-12-26T19:21:15;6.40;99.90
13798;DHT22;6970;51.340;3.240;2022-12-26T19:23:46;6.40;99.90
13798;DHT22;6970;51.340;3.240;2022-12-26T19:26:15;6.40;99.90
13798;DHT22;6970;51.340;3.240;2022-12-26T19:28:44;6.40;99.90
13798;DHT22;6970;51.340;3.240;2022-12-26T19:31:15;6.40;99.90
13798;DHT22;6970;51.340;3.240;2022-12-26T19:33:44;6.50;99.90
13798;DHT22;6970;51.340;3.240;2022-12-26T19:36:13;6.50;99.90
13798;DHT22;6970;51.340;3.240;2022-12-26T19:38:46;6.50;99.90
13798;DHT22;6970;51.340;3.240;2022-12-26T19:41:14;6.50;99.90
13798;DHT22;6970;51.340;3.240;2022-12-26T19:43:41;6.60;99.90
13798;DHT22;6970;51.340;3.240;2022-12-26T19:46:12;6.60;99.90
13798;DHT22;6970;51.340;3.240;2022-12-26T19:48:41;6.60;99.90
13798;DHT22;6970;51.340;3.240;2022-12-26T19:51:13;6.60;99.90
13798;DHT22;6970;51.340;3.240;2022-12-26T19:53:44;6.60;99.90
13798;DHT22;6970;51.340;3.240;2022-12-26T19:56:18;6.60;99.90
13798;DHT22;6970;51.340;3.240;2022-12-26T19:58:47;6.60;99.90
13798;DHT22;6970;51.340;3.240;2022-12-26T20:01:31;6.60;99.90
13798;DHT22;6970;51.340;3.240;2022-12-26T20:04:02;6.60;99.90
13798;DHT22;6970;51.340;3.240;2022-12-26T20:06:33;6.60;99.90
13798;DHT22;6970;51.340;3.240;2022-12-26T20:09:07;6.60;99.90
13798;DHT22;6970;51.340;3.240;2022-12-26T20:11:43;6.60;99.90
13798;DHT22;6970;51.340;3.240;2022-12-26T20:14:13;6.60;99.90
13798;DHT22;6970;51.340;3.240;2022-12-26T20:16:44;6.60;99.90
13798;DHT22;6970;51.340;3.240;2022-12-26T20:19:35;6.60;99.90
13798;DHT22;6970;51.340;3.240;2022-12-26T20:22:03;6.70;99.90
13798;DHT22;6970;51.340;3.240;2022-12-26T20:24:30;6.80;99.90
13798;DHT22;6970;51.340;3.240;2022-12-26T20:26:57;6.90;99.90
13798;DHT22;6970;51.340;3.240;2022-12-26T20:29:28;6.80;99.90
13798;DHT22;6970;51.340;3.240;2022-12-26T20:31:56;6.70;99.90
13798;DHT22;6970;51.340;3.240;2022-12-26T20:34:24;6.60;99.90
13798;DHT22;6970;51.340;3.240;2022-12-26T20:36:52;6.60;99.90
13798;DHT22;6970;51.340;3.240;2022-12-26T20:39:19;6.50;99.90
13798;DHT22;6970;51.340;3.240;2022-12-26T20:41:48;6.50;99.90
13798;DHT22;6970;51.340;3.240;2022-12-26T20:44:16;6.50;99.90
13798;DHT22;6970;51.340;3.240;2022-12-26T20:46:57;6.60;99.90
13798;DHT22;6970;51.340;3.240;2022-12-26T20:49:25;6.70;99.90
13798;DHT22;6970;51.340;3.240;2022-12-26T20:51:52;6.80;99.90